sensor_id;sensor_type;location;lat;lon;timestamp;temperature;humidity
64817;DHT22;53289;45.602;11.904;2023-03-01T00:01:14;2.40;63.90
64817;DHT22;53289;45.602;11.904;2023-03-01T00:03:42;2.40;64.20
64817;DHT22;53289;45.602;11.904;2023-03-01T00:06:09;2.40;64.90
64817;DHT22;53289;45.602;11.904;2023-03-01T00:08:35;2.40;64.50
64817;DHT22;53289;45.602;11.904;2023-03-01T00:13:47;2.60;64.60
64817;DHT22;53289;45.602;11.904;2023-03-01T00:16:16;2.60;64.20
64817;DHT22;53289;45.602;11.904;2023-03-01T00:18:43;2.70;65.30
64817;DHT22;53289;45.602;11.904;2023-03-01T00:21:09;2.60;65.20
64817;DHT22;53289;45.602;11.904;2023-03-01T00:23:35;2.60;65.30
64817;DHT22;53289;45.602;11.904;2023-03-01T00:26:02;2.60;64.90
64817;DHT22;53289;45.602;11.904;2023-03-01T00:28:28;2.60;65.00
64817;DHT22;53289;45.602;11.904;2023-03-01T00:30:54;2.60;65.40
64817;DHT22;53289;45.602;11.904;2023-03-01T00:33:20;2.50;64.10
64817;DHT22;53289;45.602;11.904;2023-03-01T00:35:45;2.50;64.50
64817;DHT22;53289;45.602;11.904;2023-03-01T00:38:11;2.40;65.20
64817;DHT22;53289;45.602;11.904;2023-03-01T00:40:37;2.40;66.20
64817;DHT22;53289;45.602;11.904;2023-03-01T00:43:04;2.40;66.20
64817;DHT22;53289;45.602;11.904;2023-03-01T00:45:30;2.40;66.00
64817;DHT22;53289;45.602;11.904;2023-03-01T00:47:56;2.40;65.60
64817;DHT22;53289;45.602;11.904;2023-03-01T00:50:23;2.40;66.20
64817;DHT22;53289;45.602;11.904;2023-03-01T00:52:53;2.50;65.30
64817;DHT22;53289;45.602;11.904;2023-03-01T00:55:19;2.50;65.00
64817;DHT22;53289;45.602;11.904;2023-03-01T00:57:45;2.50;65.20
64817;DHT22;53289;45.602;11.904;2023-03-01T01:00:11;2.50;65.70
64817;DHT22;53289;45.602;11.904;2023-03-01T01:02:37;2.50;65.90
64817;DHT22;53289;45.602;11.904;2023-03-01T01:05:04;2.50;65.30
64817;DHT22;53289;45.602;11.904;2023-03-01T01:07:30;2.50;65.50
64817;DHT22;53289;45.602;11.904;2023-03-01T01:09:56;2.50;65.80
64817;DHT22;53289;45.602;11.904;2023-03-01T01:12:22;2.50;65.20
64817;DHT22;53289;45.602;11.904;2023-03-01T01:14:48;2.50;65.50
64817;DHT22;53289;45.602;11.904;2023-03-01T01:17:14;2.40;65.40
64817;DHT22;53289;45.602;11.904;2023-03-01T01:19:40;2.40;65.00
64817;DHT22;53289;45.602;11.904;2023-03-01T01:22:06;2.40;65.40
64817;DHT22;53289;45.602;11.904;2023-03-01T01:24:32;2.30;66.10
64817;DHT22;53289;45.602;11.904;2023-03-01T01:26:58;2.40;66.60
64817;DHT22;53289;45.602;11.904;2023-03-01T01:29:23;2.40;66.70
64817;DHT22;53289;45.602;11.904;2023-03-01T01:34:21;2.50;66.10
64817;DHT22;53289;45.602;11.904;2023-03-01T01:36:52;2.50;66.00
64817;DHT22;53289;45.602;11.904;2023-03-01T01:39:20;2.60;65.80
64817;DHT22;53289;45.602;11.904;2023-03-01T01:41:47;2.60;65.60
64817;DHT22;53289;45.602;11.904;2023-03-01T01:44:23;2.60;65.60
64817;DHT22;53289;45.602;11.904;2023-03-01T01:47:16;2.70;65.00
64817;DHT22;53289;45.602;11.904;2023-03-01T01:49:51;2.80;65.50
64817;DHT22;53289;45.602;11.904;2023-03-01T01:52:35;2.80;65.00
64817;DHT22;53289;45.602;11.904;2023-03-01T01:55:05;2.80;64.80
64817;DHT22;53289;45.602;11.904;2023-03-01T01:57:40;2.80;65.50
64817;DHT22;53289;45.602;11.904;2023-03-01T02:00:10;2.80;65.20
64817;DHT22;53289;45.602;11.904;2023-03-01T02:02:38;2.80;64.70
64817;DHT22;53289;45.602;11.904;2023-03-01T02:05:19;2.70;64.60
64817;DHT22;53289;45.602;11.904;2023-03-01T02:07:46;2.70;64.60
64817;DHT22;53289;45.602;11.904;2023-03-01T02:10:13;2.70;65.10
64817;DHT22;53289;45.602;11.904;2023-03-01T02:12:39;2.80;64.60
64817;DHT22;53289;45.602;11.904;2023-03-01T02:15:05;2.80;64.60
64817;DHT22;53289;45.602;11.904;2023-03-01T02:17:32;2.70;65.30
64817;DHT22;53289;45.602;11.904;2023-03-01T02:28:08;2.80;65.60
64817;DHT22;53289;45.602;11.904;2023-03-01T02:30:36;2.80;65.20
64817;DHT22;53289;45.602;11.904;2023-03-01T02:33:03;2.70;65.10
64817;DHT22;53289;45.602;11.904;2023-03-01T02:35:36;2.70;65.20
64817;DHT22;53289;45.602;11.904;2023-03-01T02:38:05;2.80;65.40
64817;DHT22;53289;45.602;11.904;2023-03-01T02:40:34;2.80;65.20
64817;DHT22;53289;45.602;11.904;2023-03-01T02:43:01;2.80;65.60
64817;DHT22;53289;45.602;11.904;2023-03-01T02:45:28;2.90;65.20
64817;DHT22;53289;45.602;11.904;2023-03-01T02:47:54;2.90;65.60
64817;DHT22;53289;45.602;11.904;2023-03-01T02:53:07;3.00;65.20
64817;DHT22;53289;45.602;11.904;2023-03-01T02:55:34;3.10;65.20
64817;DHT22;53289;45.602;11.904;2023-03-01T02:58:02;3.10;65.10
64817;DHT22;53289;45.602;11.904;2023-03-01T03:00:40;3.20;64.80
64817;DHT22;53289;45.602;11.904;2023-03-01T03:03:13;3.20;64.70
64817;DHT22;53289;45.602;11.904;2023-03-01T03:05:40;3.20;64.60
64817;DHT22;53289;45.602;11.904;2023-03-01T03:08:05;3.20;64.50
64817;DHT22;53289;45.602;11.904;2023-03-01T03:10:36;3.20;64.60
64817;DHT22;53289;45.602;11.904;2023-03-01T03:13:11;3.20;64.90
64817;DHT22;53289;45.602;11.904;2023-03-01T03:15:38;3.20;64.70
64817;DHT22;53289;45.602;11.904;2023-03-01T03:18:07;3.20;64.70
64817;DHT22;53289;45.602;11.904;2023-03-01T03:20:34;3.20;64.80
64817;DHT22;53289;45.602;11.904;2023-03-01T03:23:00;3.20;65.00
64817;DHT22;53289;45.602;11.904;2023-03-01T03:25:27;3.20;65.00
64817;DHT22;53289;45.602;11.904;2023-03-01T03:27:54;3.20;64.90
64817;DHT22;53289;45.602;11.904;2023-03-01T03:30:24;3.10;64.90
64817;DHT22;53289;45.602;11.904;2023-03-01T03:32:50;3.10;65.00
64817;DHT22;53289;45.602;11.904;2023-03-01T03:35:31;3.10;65.20
64817;DHT22;53289;45.602;11.904;2023-03-01T03:37:59;2.90;65.10
64817;DHT22;53289;45.602;11.904;2023-03-01T03:42:56;2.80;65.20
64817;DHT22;53289;45.602;11.904;2023-03-01T03:45:22;2.70;65.40
64817;DHT22;53289;45.602;11.904;2023-03-01T03:47:48;2.60;65.60
64817;DHT22;53289;45.602;11.904;2023-03-01T03:50:15;2.60;65.70
64817;DHT22;53289;45.602;11.904;2023-03-01T03:52:41;2.50;66.10
64817;DHT22;53289;45.602;11.904;2023-03-01T03:55:09;2.50;66.20
64817;DHT22;53289;45.602;11.904;2023-03-01T03:57:37;2.40;66.10
64817;DHT22;53289;45.602;11.904;2023-03-01T04:00:04;2.40;66.20
64817;DHT22;53289;45.602;11.904;2023-03-01T04:02:31;2.30;66.20
64817;DHT22;53289;45.602;11.904;2023-03-01T04:04:57;2.20;66.50
64817;DHT22;53289;45.602;11.904;2023-03-01T04:07:23;2.20;66.70
64817;DHT22;53289;45.602;11.904;2023-03-01T04:09:48;2.10;66.70
64817;DHT22;53289;45.602;11.904;2023-03-01T04:12:14;2.10;66.80
64817;DHT22;53289;45.602;11.904;2023-03-01T04:14:46;2.00;67.00
64817;DHT22;53289;45.602;11.904;2023-03-01T04:17:11;2.00;67.10
64817;DHT22;53289;45.602;11.904;2023-03-01T04:19:38;2.00;67.10
64817;DHT22;53289;45.602;11.904;2023-03-01T04:22:04;2.00;67.20
64817;DHT22;53289;45.602;11.904;2023-03-01T04:24:35;2.00;67.30
64817;DHT22;53289;45.602;11.904;2023-03-01T04:27:02;2.10;67.40
64817;DHT22;53289;45.602;11.904;2023-03-01T04:29:28;2.10;67.80
64817;DHT22;53289;45.602;11.904;2023-03-01T04:31:54;2.10;67.60
64817;DHT22;53289;45.602;11.904;2023-03-01T04:34:20;2.10;67.20
64817;DHT22;53289;45.602;11.904;2023-03-01T04:36:45;2.10;67.50
64817;DHT22;53289;45.602;11.904;2023-03-01T04:39:11;2.20;67.10
64817;DHT22;53289;45.602;11.904;2023-03-01T04:41:40;2.10;67.60
64817;DHT22;53289;45.602;11.904;2023-03-01T04:44:07;2.20;67.40
64817;DHT22;53289;45.602;11.904;2023-03-01T04:46:35;2.30;67.40
64817;DHT22;53289;45.602;11.904;2023-03-01T04:49:01;2.30;67.40
64817;DHT22;53289;45.602;11.904;2023-03-01T04:51:27;2.30;67.20
64817;DHT22;53289;45.602;11.904;2023-03-01T04:53:53;2.40;67.10
64817;DHT22;53289;45.602;11.904;2023-03-01T04:56:18;2.40;67.60
64817;DHT22;53289;45.602;11.904;2023-03-01T04:58:45;2.50;66.90
64817;DHT22;53289;45.602;11.904;2023-03-01T05:01:17;2.50;66.70
64817;DHT22;53289;45.602;11.904;2023-03-01T05:03:52;2.60;66.80
64817;DHT22;53289;45.602;11.904;2023-03-01T05:06:19;2.60;66.80
64817;DHT22;53289;45.602;11.904;2023-03-01T05:08:45;2.70;67.20
64817;DHT22;53289;45.602;11.904;2023-03-01T05:11:12;2.80;66.90
64817;DHT22;53289;45.602;11.904;2023-03-01T05:13:39;2.90;67.50
64817;DHT22;53289;45.602;11.904;2023-03-01T05:16:05;2.90;67.70
64817;DHT22;53289;45.602;11.904;2023-03-01T05:18:33;3.00;66.80
64817;DHT22;53289;45.602;11.904;2023-03-01T05:21:13;3.20;66.70
64817;DHT22;53289;45.602;11.904;2023-03-01T05:23:41;3.30;66.00
64817;DHT22;53289;45.602;11.904;2023-03-01T05:26:08;3.30;66.10
64817;DHT22;53289;45.602;11.904;2023-03-01T05:28:34;3.40;66.40
64817;DHT22;53289;45.602;11.904;2023-03-01T05:31:00;3.50;66.10
64817;DHT22;53289;45.602;11.904;2023-03-01T05:33:26;3.60;66.30
64817;DHT22;53289;45.602;11.904;2023-03-01T05:35:52;3.70;65.60
64817;DHT22;53289;45.602;11.904;2023-03-01T05:38:19;3.80;65.50
64817;DHT22;53289;45.602;11.904;2023-03-01T05:40:47;3.90;65.40
64817;DHT22;53289;45.602;11.904;2023-03-01T05:43:15;3.90;65.20
64817;DHT22;53289;45.602;11.904;2023-03-01T05:45:42;4.00;65.00
64817;DHT22;53289;45.602;11.904;2023-03-01T05:48:09;4.10;64.80
64817;DHT22;53289;45.602;11.904;2023-03-01T05:50:38;4.10;64.80
64817;DHT22;53289;45.602;11.904;2023-03-01T05:53:09;4.20;64.50
64817;DHT22;53289;45.602;11.904;2023-03-01T05:55:36;4.30;64.50
64817;DHT22;53289;45.602;11.904;2023-03-01T05:58:07;4.30;64.10
64817;DHT22;53289;45.602;11.904;2023-03-01T06:00:33;4.40;63.90
64817;DHT22;53289;45.602;11.904;2023-03-01T06:02:59;4.40;64.30
64817;DHT22;53289;45.602;11.904;2023-03-01T06:05:26;4.50;64.00
64817;DHT22;53289;45.602;11.904;2023-03-01T06:07:53;4.50;63.70
64817;DHT22;53289;45.602;11.904;2023-03-01T06:10:20;4.60;63.10
64817;DHT22;53289;45.602;11.904;2023-03-01T06:12:46;4.60;62.80
64817;DHT22;53289;45.602;11.904;2023-03-01T06:15:14;4.70;62.60
64817;DHT22;53289;45.602;11.904;2023-03-01T06:17:42;4.80;62.50
64817;DHT22;53289;45.602;11.904;2023-03-01T06:20:17;4.80;62.20
64817;DHT22;53289;45.602;11.904;2023-03-01T06:22:43;4.90;62.00
64817;DHT22;53289;45.602;11.904;2023-03-01T06:25:10;4.90;62.00
64817;DHT22;53289;45.602;11.904;2023-03-01T06:27:38;5.00;61.90
64817;DHT22;53289;45.602;11.904;2023-03-01T06:30:05;5.00;61.80
64817;DHT22;53289;45.602;11.904;2023-03-01T06:32:32;5.00;61.80
64817;DHT22;53289;45.602;11.904;2023-03-01T06:34:58;5.00;61.70
64817;DHT22;53289;45.602;11.904;2023-03-01T06:37:25;5.00;61.90
64817;DHT22;53289;45.602;11.904;2023-03-01T06:39:51;5.00;61.90
64817;DHT22;53289;45.602;11.904;2023-03-01T06:42:16;5.00;61.90
64817;DHT22;53289;45.602;11.904;2023-03-01T06:44:44;5.00;62.00
64817;DHT22;53289;45.602;11.904;2023-03-01T06:47:10;5.00;61.90
64817;DHT22;53289;45.602;11.904;2023-03-01T06:49:36;5.10;62.20
64817;DHT22;53289;45.602;11.904;2023-03-01T06:52:02;5.10;62.30
64817;DHT22;53289;45.602;11.904;2023-03-01T06:54:28;5.10;62.50
64817;DHT22;53289;45.602;11.904;2023-03-01T06:56:54;5.10;62.40
64817;DHT22;53289;45.602;11.904;2023-03-01T06:59:20;5.20;62.40
64817;DHT22;53289;45.602;11.904;2023-03-01T07:01:46;5.30;62.50
64817;DHT22;53289;45.602;11.904;2023-03-01T07:04:13;5.30;62.60
64817;DHT22;53289;45.602;11.904;2023-03-01T07:06:39;5.40;62.40
64817;DHT22;53289;45.602;11.904;2023-03-01T07:09:05;5.40;62.30
64817;DHT22;53289;45.602;11.904;2023-03-01T07:11:31;5.50;62.70
64817;DHT22;53289;45.602;11.904;2023-03-01T07:13:57;5.50;62.40
64817;DHT22;53289;45.602;11.904;2023-03-01T07:16:25;5.60;62.40
64817;DHT22;53289;45.602;11.904;2023-03-01T07:18:51;5.70;62.20
64817;DHT22;53289;45.602;11.904;2023-03-01T07:21:17;5.80;62.30
64817;DHT22;53289;45.602;11.904;2023-03-01T07:23:43;5.90;61.60
64817;DHT22;53289;45.602;11.904;2023-03-01T07:26:09;6.00;61.10
64817;DHT22;53289;45.602;11.904;2023-03-01T07:28:35;6.20;60.40
64817;DHT22;53289;45.602;11.904;2023-03-01T07:31:04;6.40;60.00
64817;DHT22;53289;45.602;11.904;2023-03-01T07:33:31;6.50;59.80
64817;DHT22;53289;45.602;11.904;2023-03-01T07:35:59;6.50;59.10
64817;DHT22;53289;45.602;11.904;2023-03-01T07:38:25;6.60;58.80
64817;DHT22;53289;45.602;11.904;2023-03-01T07:40:51;6.60;58.80
64817;DHT22;53289;45.602;11.904;2023-03-01T07:43:17;6.70;58.70
64817;DHT22;53289;45.602;11.904;2023-03-01T07:45:43;6.80;59.10
64817;DHT22;53289;45.602;11.904;2023-03-01T07:48:09;6.90;58.70
64817;DHT22;53289;45.602;11.904;2023-03-01T07:50:35;6.90;58.30
64817;DHT22;53289;45.602;11.904;2023-03-01T07:53:01;7.00;57.60
64817;DHT22;53289;45.602;11.904;2023-03-01T07:55:28;7.10;57.50
64817;DHT22;53289;45.602;11.904;2023-03-01T07:57:54;7.10;57.80
64817;DHT22;53289;45.602;11.904;2023-03-01T08:00:19;7.20;57.50
64817;DHT22;53289;45.602;11.904;2023-03-01T08:02:45;7.30;57.10
64817;DHT22;53289;45.602;11.904;2023-03-01T08:05:11;7.30;57.10
64817;DHT22;53289;45.602;11.904;2023-03-01T08:07:37;7.40;57.40
64817;DHT22;53289;45.602;11.904;2023-03-01T08:10:03;7.50;57.30
64817;DHT22;53289;45.602;11.904;2023-03-01T08:12:29;7.60;57.10
64817;DHT22;53289;45.602;11.904;2023-03-01T08:14:55;7.70;57.40
64817;DHT22;53289;45.602;11.904;2023-03-01T08:17:22;7.90;56.60
64817;DHT22;53289;45.602;11.904;2023-03-01T08:19:48;7.90;55.50
64817;DHT22;53289;45.602;11.904;2023-03-01T08:22:13;8.00;56.30
64817;DHT22;53289;45.602;11.904;2023-03-01T08:24:39;8.00;56.10
64817;DHT22;53289;45.602;11.904;2023-03-01T08:27:05;8.10;55.80
64817;DHT22;53289;45.602;11.904;2023-03-01T08:29:32;8.10;56.10
64817;DHT22;53289;45.602;11.904;2023-03-01T08:31:57;8.20;55.90
64817;DHT22;53289;45.602;11.904;2023-03-01T08:34:23;8.20;55.30
64817;DHT22;53289;45.602;11.904;2023-03-01T08:36:49;8.30;54.00
64817;DHT22;53289;45.602;11.904;2023-03-01T08:39:18;8.30;55.10
64817;DHT22;53289;45.602;11.904;2023-03-01T08:41:44;8.40;55.30
64817;DHT22;53289;45.602;11.904;2023-03-01T08:44:11;8.50;55.10
64817;DHT22;53289;45.602;11.904;2023-03-01T08:46:39;8.60;54.00
64817;DHT22;53289;45.602;11.904;2023-03-01T08:49:15;8.80;54.30
64817;DHT22;53289;45.602;11.904;2023-03-01T08:51:42;9.00;54.10
64817;DHT22;53289;45.602;11.904;2023-03-01T08:54:15;9.10;53.40
64817;DHT22;53289;45.602;11.904;2023-03-01T08:56:41;9.20;53.20
64817;DHT22;53289;45.602;11.904;2023-03-01T08:59:08;9.40;53.50
64817;DHT22;53289;45.602;11.904;2023-03-01T09:01:34;9.40;53.40
64817;DHT22;53289;45.602;11.904;2023-03-01T09:04:00;9.60;53.40
64817;DHT22;53289;45.602;11.904;2023-03-01T09:06:26;9.80;53.30
64817;DHT22;53289;45.602;11.904;2023-03-01T09:08:52;9.90;52.30
64817;DHT22;53289;45.602;11.904;2023-03-01T09:11:21;10.20;51.10
64817;DHT22;53289;45.602;11.904;2023-03-01T09:13:48;10.50;51.40
64817;DHT22;53289;45.602;11.904;2023-03-01T09:16:15;10.80;48.70
64817;DHT22;53289;45.602;11.904;2023-03-01T09:18:44;11.00;49.00
64817;DHT22;53289;45.602;11.904;2023-03-01T09:21:15;11.40;49.10
64817;DHT22;53289;45.602;11.904;2023-03-01T09:23:43;11.80;49.20
64817;DHT22;53289;45.602;11.904;2023-03-01T09:26:13;12.30;47.80
64817;DHT22;53289;45.602;11.904;2023-03-01T09:28:40;12.50;46.40
64817;DHT22;53289;45.602;11.904;2023-03-01T09:31:13;12.60;44.60
64817;DHT22;53289;45.602;11.904;2023-03-01T09:33:41;12.60;45.60
64817;DHT22;53289;45.602;11.904;2023-03-01T09:36:12;12.60;45.50
64817;DHT22;53289;45.602;11.904;2023-03-01T09:38:48;12.60;45.30
64817;DHT22;53289;45.602;11.904;2023-03-01T09:43:50;12.70;45.60
64817;DHT22;53289;45.602;11.904;2023-03-01T09:46:22;12.60;45.60
64817;DHT22;53289;45.602;11.904;2023-03-01T09:48:56;12.60;45.30
64817;DHT22;53289;45.602;11.904;2023-03-01T09:51:31;12.70;44.80
64817;DHT22;53289;45.602;11.904;2023-03-01T09:53:57;12.90;45.30
64817;DHT22;53289;45.602;11.904;2023-03-01T09:56:53;13.00;44.00
64817;DHT22;53289;45.602;11.904;2023-03-01T10:09:33;13.20;44.70
64817;DHT22;53289;45.602;11.904;2023-03-01T10:12:02;13.20;44.90
64817;DHT22;53289;45.602;11.904;2023-03-01T10:14:35;13.40;43.70
64817;DHT22;53289;45.602;11.904;2023-03-01T10:17:51;13.50;44.90
64817;DHT22;53289;45.602;11.904;2023-03-01T10:20:19;13.40;45.30
64817;DHT22;53289;45.602;11.904;2023-03-01T10:22:45;13.30;45.10
64817;DHT22;53289;45.602;11.904;2023-03-01T10:27:57;13.20;44.20
64817;DHT22;53289;45.602;11.904;2023-03-01T10:32:54;13.10;45.10
64817;DHT22;53289;45.602;11.904;2023-03-01T10:40:28;13.30;44.00
64817;DHT22;53289;45.602;11.904;2023-03-01T10:42:57;13.30;43.90
64817;DHT22;53289;45.602;11.904;2023-03-01T10:45:36;13.40;43.70
64817;DHT22;53289;45.602;11.904;2023-03-01T10:48:15;13.40;42.80
64817;DHT22;53289;45.602;11.904;2023-03-01T10:50:46;13.30;45.50
64817;DHT22;53289;45.602;11.904;2023-03-01T10:55:47;13.10;45.90
64817;DHT22;53289;45.602;11.904;2023-03-01T10:58:22;13.00;46.00
64817;DHT22;53289;45.602;11.904;2023-03-01T11:00:53;12.70;45.40
64817;DHT22;53289;45.602;11.904;2023-03-01T11:03:34;12.40;45.80
64817;DHT22;53289;45.602;11.904;2023-03-01T11:06:21;12.20;47.10
64817;DHT22;53289;45.602;11.904;2023-03-01T11:08:49;11.90;46.30
64817;DHT22;53289;45.602;11.904;2023-03-01T11:11:33;11.70;46.10
64817;DHT22;53289;45.602;11.904;2023-03-01T11:14:22;11.50;46.70
64817;DHT22;53289;45.602;11.904;2023-03-01T11:17:05;11.50;48.00
64817;DHT22;53289;45.602;11.904;2023-03-01T11:19:32;11.40;47.40
64817;DHT22;53289;45.602;11.904;2023-03-01T11:22:11;11.30;47.00
64817;DHT22;53289;45.602;11.904;2023-03-01T11:24:45;11.30;47.30
64817;DHT22;53289;45.602;11.904;2023-03-01T11:27:19;11.30;46.30
64817;DHT22;53289;45.602;11.904;2023-03-01T11:30:05;11.30;48.10
64817;DHT22;53289;45.602;11.904;2023-03-01T11:32:38;11.30;46.70
64817;DHT22;53289;45.602;11.904;2023-03-01T11:35:10;11.20;48.80
64817;DHT22;53289;45.602;11.904;2023-03-01T11:37:59;11.20;47.20
64817;DHT22;53289;45.602;11.904;2023-03-01T11:54:45;10.90;48.90
64817;DHT22;53289;45.602;11.904;2023-03-01T11:57:38;10.90;47.00
64817;DHT22;53289;45.602;11.904;2023-03-01T12:03:28;10.60;48.20
64817;DHT22;53289;45.602;11.904;2023-03-01T12:06:23;10.50;49.10
64817;DHT22;53289;45.602;11.904;2023-03-01T12:11:36;10.30;49.30
64817;DHT22;53289;45.602;11.904;2023-03-01T12:25:29;10.20;49.60
64817;DHT22;53289;45.602;11.904;2023-03-01T12:30:56;10.10;49.90
64817;DHT22;53289;45.602;11.904;2023-03-01T12:36:48;9.90;50.20
64817;DHT22;53289;45.602;11.904;2023-03-01T12:44:47;9.80;50.40
64817;DHT22;53289;45.602;11.904;2023-03-01T12:47:26;9.80;51.60
64817;DHT22;53289;45.602;11.904;2023-03-01T12:49:59;9.70;51.60
64817;DHT22;53289;45.602;11.904;2023-03-01T12:52:49;9.60;51.90
64817;DHT22;53289;45.602;11.904;2023-03-01T12:55:41;9.70;51.60
64817;DHT22;53289;45.602;11.904;2023-03-01T12:58:41;9.70;51.40
64817;DHT22;53289;45.602;11.904;2023-03-01T13:04:28;9.80;51.80
64817;DHT22;53289;45.602;11.904;2023-03-01T13:10:20;9.60;55.70
64817;DHT22;53289;45.602;11.904;2023-03-01T13:17:57;9.20;60.40
64817;DHT22;53289;45.602;11.904;2023-03-01T13:20:25;9.10;59.50
64817;DHT22;53289;45.602;11.904;2023-03-01T13:23:06;9.20;60.00
64817;DHT22;53289;45.602;11.904;2023-03-01T13:25:33;9.20;60.50
64817;DHT22;53289;45.602;11.904;2023-03-01T13:31:03;9.30;59.10
64817;DHT22;53289;45.602;11.904;2023-03-01T13:35:58;9.40;58.00
64817;DHT22;53289;45.602;11.904;2023-03-01T13:41:13;9.50;57.80
64817;DHT22;53289;45.602;11.904;2023-03-01T13:43:42;9.60;56.80
64817;DHT22;53289;45.602;11.904;2023-03-01T13:46:19;9.50;56.00
64817;DHT22;53289;45.602;11.904;2023-03-01T13:48:53;9.50;56.80
64817;DHT22;53289;45.602;11.904;2023-03-01T13:51:26;9.40;56.10
64817;DHT22;53289;45.602;11.904;2023-03-01T13:53:54;9.40;56.40
64817;DHT22;53289;45.602;11.904;2023-03-01T13:56:36;9.40;55.20
64817;DHT22;53289;45.602;11.904;2023-03-01T13:59:06;9.40;55.80
64817;DHT22;53289;45.602;11.904;2023-03-01T14:01:38;9.40;57.70
64817;DHT22;53289;45.602;11.904;2023-03-01T14:04:20;9.50;56.80
64817;DHT22;53289;45.602;11.904;2023-03-01T14:06:46;9.60;56.80
64817;DHT22;53289;45.602;11.904;2023-03-01T14:09:23;9.60;56.20
64817;DHT22;53289;45.602;11.904;2023-03-01T14:20:00;9.70;57.20
64817;DHT22;53289;45.602;11.904;2023-03-01T14:25:04;9.70;57.70
64817;DHT22;53289;45.602;11.904;2023-03-01T14:27:36;9.80;57.90
64817;DHT22;53289;45.602;11.904;2023-03-01T14:30:15;9.70;57.70
64817;DHT22;53289;45.602;11.904;2023-03-01T14:32:43;9.70;57.40
64817;DHT22;53289;45.602;11.904;2023-03-01T14:35:29;9.70;57.30
64817;DHT22;53289;45.602;11.904;2023-03-01T14:37:55;9.70;56.80
64817;DHT22;53289;45.602;11.904;2023-03-01T14:42:58;9.80;57.30
64817;DHT22;53289;45.602;11.904;2023-03-01T14:45:27;9.70;57.40
64817;DHT22;53289;45.602;11.904;2023-03-01T14:47:55;9.60;58.10
64817;DHT22;53289;45.602;11.904;2023-03-01T14:50:29;9.60;57.90
64817;DHT22;53289;45.602;11.904;2023-03-01T14:53:01;9.60;57.40
64817;DHT22;53289;45.602;11.904;2023-03-01T14:55:40;9.50;57.40
64817;DHT22;53289;45.602;11.904;2023-03-01T14:58:13;9.50;56.40
64817;DHT22;53289;45.602;11.904;2023-03-01T15:00:52;9.50;56.80
64817;DHT22;53289;45.602;11.904;2023-03-01T15:03:34;9.50;55.70
64817;DHT22;53289;45.602;11.904;2023-03-01T15:06:04;9.50;56.20
64817;DHT22;53289;45.602;11.904;2023-03-01T15:08:31;9.50;56.00
64817;DHT22;53289;45.602;11.904;2023-03-01T15:11:04;9.60;55.80
64817;DHT22;53289;45.602;11.904;2023-03-01T15:13:33;9.70;55.70
64817;DHT22;53289;45.602;11.904;2023-03-01T15:16:18;9.80;55.30
64817;DHT22;53289;45.602;11.904;2023-03-01T15:18:50;9.90;54.30
64817;DHT22;53289;45.602;11.904;2023-03-01T15:23:54;9.90;55.10
64817;DHT22;53289;45.602;11.904;2023-03-01T15:26:28;9.90;54.60
64817;DHT22;53289;45.602;11.904;2023-03-01T15:28:56;9.90;54.50
64817;DHT22;53289;45.602;11.904;2023-03-01T15:31:29;9.90;54.90
64817;DHT22;53289;45.602;11.904;2023-03-01T15:34:30;9.90;55.00
64817;DHT22;53289;45.602;11.904;2023-03-01T15:36:59;9.90;56.00
64817;DHT22;53289;45.602;11.904;2023-03-01T15:39:37;9.90;55.10
64817;DHT22;53289;45.602;11.904;2023-03-01T15:44:36;10.00;54.70
64817;DHT22;53289;45.602;11.904;2023-03-01T15:47:08;9.90;55.10
64817;DHT22;53289;45.602;11.904;2023-03-01T15:49:46;9.90;55.10
64817;DHT22;53289;45.602;11.904;2023-03-01T15:54:47;9.80;55.20
64817;DHT22;53289;45.602;11.904;2023-03-01T15:57:13;9.80;55.10
64817;DHT22;53289;45.602;11.904;2023-03-01T15:59:41;9.80;55.50
64817;DHT22;53289;45.602;11.904;2023-03-01T16:02:11;9.80;56.00
64817;DHT22;53289;45.602;11.904;2023-03-01T16:04:39;9.80;58.30
64817;DHT22;53289;45.602;11.904;2023-03-01T16:07:05;9.60;59.30
64817;DHT22;53289;45.602;11.904;2023-03-01T16:09:31;9.40;62.10
64817;DHT22;53289;45.602;11.904;2023-03-01T16:11:57;9.40;62.50
64817;DHT22;53289;45.602;11.904;2023-03-01T16:14:23;9.20;63.20
64817;DHT22;53289;45.602;11.904;2023-03-01T16:16:50;9.20;63.10
64817;DHT22;53289;45.602;11.904;2023-03-01T16:19:16;9.00;64.30
64817;DHT22;53289;45.602;11.904;2023-03-01T16:21:42;8.90;65.80
64817;DHT22;53289;45.602;11.904;2023-03-01T16:24:09;8.70;67.40
64817;DHT22;53289;45.602;11.904;2023-03-01T16:26:36;8.60;67.50
64817;DHT22;53289;45.602;11.904;2023-03-01T16:29:03;8.50;68.40
64817;DHT22;53289;45.602;11.904;2023-03-01T16:31:29;8.40;69.30
64817;DHT22;53289;45.602;11.904;2023-03-01T16:33:57;8.20;68.90
64817;DHT22;53289;45.602;11.904;2023-03-01T16:36:25;8.00;70.50
64817;DHT22;53289;45.602;11.904;2023-03-01T16:38:54;7.90;70.50
64817;DHT22;53289;45.602;11.904;2023-03-01T16:41:22;7.90;71.20
64817;DHT22;53289;45.602;11.904;2023-03-01T16:43:48;7.90;70.60
64817;DHT22;53289;45.602;11.904;2023-03-01T16:46:21;7.70;71.50
64817;DHT22;53289;45.602;11.904;2023-03-01T16:48:49;7.60;71.70
64817;DHT22;53289;45.602;11.904;2023-03-01T16:51:15;7.50;71.70
64817;DHT22;53289;45.602;11.904;2023-03-01T16:53:41;7.60;72.40
64817;DHT22;53289;45.602;11.904;2023-03-01T16:56:09;7.60;71.70
64817;DHT22;53289;45.602;11.904;2023-03-01T16:58:37;7.60;72.50
64817;DHT22;53289;45.602;11.904;2023-03-01T17:01:08;7.60;72.00
64817;DHT22;53289;45.602;11.904;2023-03-01T17:03:34;7.60;71.90
64817;DHT22;53289;45.602;11.904;2023-03-01T17:06:05;7.60;72.50
64817;DHT22;53289;45.602;11.904;2023-03-01T17:08:31;7.50;72.50
64817;DHT22;53289;45.602;11.904;2023-03-01T17:11:09;7.40;73.00
64817;DHT22;53289;45.602;11.904;2023-03-01T17:13:36;7.40;73.00
64817;DHT22;53289;45.602;11.904;2023-03-01T17:16:04;7.30;73.40
64817;DHT22;53289;45.602;11.904;2023-03-01T17:18:30;7.30;73.30
64817;DHT22;53289;45.602;11.904;2023-03-01T17:20:57;7.10;74.00
64817;DHT22;53289;45.602;11.904;2023-03-01T17:23:22;7.00;74.70
64817;DHT22;53289;45.602;11.904;2023-03-01T17:25:48;6.90;75.40
64817;DHT22;53289;45.602;11.904;2023-03-01T17:28:15;6.90;76.30
64817;DHT22;53289;45.602;11.904;2023-03-01T17:30:43;6.70;75.90
64817;DHT22;53289;45.602;11.904;2023-03-01T17:33:10;6.70;75.60
64817;DHT22;53289;45.602;11.904;2023-03-01T17:35:37;6.70;76.00
64817;DHT22;53289;45.602;11.904;2023-03-01T17:38:04;6.70;75.70
64817;DHT22;53289;45.602;11.904;2023-03-01T17:40:30;6.70;75.50
64817;DHT22;53289;45.602;11.904;2023-03-01T17:42:57;6.70;74.80
64817;DHT22;53289;45.602;11.904;2023-03-01T17:45:24;6.70;75.10
64817;DHT22;53289;45.602;11.904;2023-03-01T17:47:50;6.70;75.50
64817;DHT22;53289;45.602;11.904;2023-03-01T17:50:16;6.70;76.20